sensor_id;sensor_type;location;lat;lon;timestamp;temperature;humidity
68251;DHT22;55066;51.560;4.642;2023-02-15T00:01:36;1.91;99.99
68251;DHT22;55066;51.560;4.642;2023-02-15T00:04:02;1.90;99.99
68251;DHT22;55066;51.560;4.642;2023-02-15T00:06:28;1.85;99.99
68251;DHT22;55066;51.560;4.642;2023-02-15T00:08:54;1.84;99.99
68251;DHT22;55066;51.560;4.642;2023-02-15T00:11:21;1.81;99.99
68251;DHT22;55066;51.560;4.642;2023-02-15T00:14:06;1.78;99.99
68251;DHT22;55066;51.560;4.642;2023-02-15T00:16:33;1.67;99.99
68251;DHT22;55066;51.560;4.642;2023-02-15T00:18:58;1.67;99.99
68251;DHT22;55066;51.560;4.642;2023-02-15T00:21:28;1.66;99.99
68251;DHT22;55066;51.560;4.642;2023-02-15T00:23:54;1.62;99.99
68251;DHT22;55066;51.560;4.642;2023-02-15T00:26:19;1.63;99.99
68251;DHT22;55066;51.560;4.642;2023-02-15T00:28:45;1.62;99.99
68251;DHT22;55066;51.560;4.642;2023-02-15T00:31:12;1.57;99.99
68251;DHT22;55066;51.560;4.642;2023-02-15T00:33:38;1.56;99.99
68251;DHT22;55066;51.560;4.642;2023-02-15T00:36:08;1.55;99.99
68251;DHT22;55066;51.560;4.642;2023-02-15T00:38:34;1.49;99.99
68251;DHT22;55066;51.560;4.642;2023-02-15T00:41:02;1.53;99.99
68251;DHT22;55066;51.560;4.642;2023-02-15T00:43:30;1.53;99.99
68251;DHT22;55066;51.560;4.642;2023-02-15T00:45:55;1.49;99.99
68251;DHT22;55066;51.560;4.642;2023-02-15T00:48:21;1.49;99.99
68251;DHT22;55066;51.560;4.642;2023-02-15T00:50:50;1.50;99.99
68251;DHT22;55066;51.560;4.642;2023-02-15T00:53:16;1.50;99.99
68251;DHT22;55066;51.560;4.642;2023-02-15T00:55:41;1.46;99.99
68251;DHT22;55066;51.560;4.642;2023-02-15T00:58:09;1.45;99.99
68251;DHT22;55066;51.560;4.642;2023-02-15T01:00:36;1.40;99.99
68251;DHT22;55066;51.560;4.642;2023-02-15T01:03:02;1.35;99.99
68251;DHT22;55066;51.560;4.642;2023-02-15T01:05:27;1.35;99.99
68251;DHT22;55066;51.560;4.642;2023-02-15T01:07:55;1.29;99.99
68251;DHT22;55066;51.560;4.642;2023-02-15T01:10:20;1.35;99.99
68251;DHT22;55066;51.560;4.642;2023-02-15T01:12:46;1.29;99.99
68251;DHT22;55066;51.560;4.642;2023-02-15T01:15:13;1.29;99.99
68251;DHT22;55066;51.560;4.642;2023-02-15T01:17:39;1.32;99.99
68251;DHT22;55066;51.560;4.642;2023-02-15T01:20:06;1.24;99.99
68251;DHT22;55066;51.560;4.642;2023-02-15T01:22:32;1.17;99.99
68251;DHT22;55066;51.560;4.642;2023-02-15T01:24:58;1.14;99.99
68251;DHT22;55066;51.560;4.642;2023-02-15T01:27:23;1.14;99.99
68251;DHT22;55066;51.560;4.642;2023-02-15T01:29:49;1.08;99.99
68251;DHT22;55066;51.560;4.642;2023-02-15T01:32:14;1.14;99.99
68251;DHT22;55066;51.560;4.642;2023-02-15T01:34:42;1.11;99.99
68251;DHT22;55066;51.560;4.642;2023-02-15T01:37:07;1.12;99.99
68251;DHT22;55066;51.560;4.642;2023-02-15T01:39:34;1.08;99.99
68251;DHT22;55066;51.560;4.642;2023-02-15T01:41:59;1.04;99.99
68251;DHT22;55066;51.560;4.642;2023-02-15T01:44:53;1.05;99.99
68251;DHT22;55066;51.560;4.642;2023-02-15T01:47:43;1.05;99.99
68251;DHT22;55066;51.560;4.642;2023-02-15T01:50:17;1.04;99.99
68251;DHT22;55066;51.560;4.642;2023-02-15T01:55:37;0.92;99.99
68251;DHT22;55066;51.560;4.642;2023-02-15T01:58:04;0.94;99.99
68251;DHT22;55066;51.560;4.642;2023-02-15T02:00:29;0.90;99.99
68251;DHT22;55066;51.560;4.642;2023-02-15T02:02:56;0.88;99.99
68251;DHT22;55066;51.560;4.642;2023-02-15T02:05:24;0.85;99.99
68251;DHT22;55066;51.560;4.642;2023-02-15T02:07:51;0.81;99.99
68251;DHT22;55066;51.560;4.642;2023-02-15T02:10:20;0.83;99.99
68251;DHT22;55066;51.560;4.642;2023-02-15T02:12:53;0.83;99.99
68251;DHT22;55066;51.560;4.642;2023-02-15T02:15:28;0.84;99.99
68251;DHT22;55066;51.560;4.642;2023-02-15T02:23:18;0.77;99.99
68251;DHT22;55066;51.560;4.642;2023-02-15T02:29:01;0.70;99.99
68251;DHT22;55066;51.560;4.642;2023-02-15T02:36:55;0.59;99.99
68251;DHT22;55066;51.560;4.642;2023-02-15T02:39:30;0.64;99.99
68251;DHT22;55066;51.560;4.642;2023-02-15T02:42:06;0.63;99.99
68251;DHT22;55066;51.560;4.642;2023-02-15T02:44:44;0.57;99.99
68251;DHT22;55066;51.560;4.642;2023-02-15T02:47:18;0.52;99.99
68251;DHT22;55066;51.560;4.642;2023-02-15T02:49:44;0.52;99.99
68251;DHT22;55066;51.560;4.642;2023-02-15T02:52:42;0.49;99.99
68251;DHT22;55066;51.560;4.642;2023-02-15T02:55:18;0.52;99.99
68251;DHT22;55066;51.560;4.642;2023-02-15T02:57:52;0.48;99.99
68251;DHT22;55066;51.560;4.642;2023-02-15T03:00:20;0.49;99.99
68251;DHT22;55066;51.560;4.642;2023-02-15T03:02:47;0.56;99.99
68251;DHT22;55066;51.560;4.642;2023-02-15T03:05:17;0.60;99.99
68251;DHT22;55066;51.560;4.642;2023-02-15T03:07:47;0.59;99.99
68251;DHT22;55066;51.560;4.642;2023-02-15T03:10:17;0.52;99.99
68251;DHT22;55066;51.560;4.642;2023-02-15T03:12:44;0.50;99.99
68251;DHT22;55066;51.560;4.642;2023-02-15T03:15:20;0.46;99.99
68251;DHT22;55066;51.560;4.642;2023-02-15T03:17:51;0.50;99.99
68251;DHT22;55066;51.560;4.642;2023-02-15T03:20:28;0.42;99.99
68251;DHT22;55066;51.560;4.642;2023-02-15T03:22:59;0.43;99.99
68251;DHT22;55066;51.560;4.642;2023-02-15T03:25:32;0.43;99.99
68251;DHT22;55066;51.560;4.642;2023-02-15T03:28:08;0.45;99.99
68251;DHT22;55066;51.560;4.642;2023-02-15T03:30:35;0.43;99.99
68251;DHT22;55066;51.560;4.642;2023-02-15T03:33:03;0.38;99.99
68251;DHT22;55066;51.560;4.642;2023-02-15T03:38:31;0.32;99.99
68251;DHT22;55066;51.560;4.642;2023-02-15T03:40:59;0.25;99.99
68251;DHT22;55066;51.560;4.642;2023-02-15T03:48:53;0.30;99.99
68251;DHT22;55066;51.560;4.642;2023-02-15T03:51:22;0.24;99.99
68251;DHT22;55066;51.560;4.642;2023-02-15T03:54:17;0.21;99.99
68251;DHT22;55066;51.560;4.642;2023-02-15T03:57:04;0.41;99.99
68251;DHT22;55066;51.560;4.642;2023-02-15T03:59:58;0.41;99.99
68251;DHT22;55066;51.560;4.642;2023-02-15T04:05:44;0.22;99.99
68251;DHT22;55066;51.560;4.642;2023-02-15T04:08:10;0.18;99.99
68251;DHT22;55066;51.560;4.642;2023-02-15T04:10:36;0.30;99.99
68251;DHT22;55066;51.560;4.642;2023-02-15T04:13:31;0.16;99.99
68251;DHT22;55066;51.560;4.642;2023-02-15T04:15:57;0.08;99.99
68251;DHT22;55066;51.560;4.642;2023-02-15T04:18:37;0.02;99.99
68251;DHT22;55066;51.560;4.642;2023-02-15T04:21:22;0.07;99.99
68251;DHT22;55066;51.560;4.642;2023-02-15T04:24:09;0.19;99.99
68251;DHT22;55066;51.560;4.642;2023-02-15T04:26:53;0.18;99.99
68251;DHT22;55066;51.560;4.642;2023-02-15T04:29:23;0.15;99.99
68251;DHT22;55066;51.560;4.642;2023-02-15T04:31:50;0.14;99.99
68251;DHT22;55066;51.560;4.642;2023-02-15T04:34:17;0.08;99.99
68251;DHT22;55066;51.560;4.642;2023-02-15T04:36:43;0.09;99.99
68251;DHT22;55066;51.560;4.642;2023-02-15T04:39:09;0.18;99.99
68251;DHT22;55066;51.560;4.642;2023-02-15T04:41:37;0.15;99.99
68251;DHT22;55066;51.560;4.642;2023-02-15T04:44:03;0.02;99.99
68251;DHT22;55066;51.560;4.642;2023-02-15T04:46:28;-0.05;99.99
68251;DHT22;55066;51.560;4.642;2023-02-15T04:48:54;-0.12;99.99
68251;DHT22;55066;51.560;4.642;2023-02-15T04:51:20;-0.16;99.99
68251;DHT22;55066;51.560;4.642;2023-02-15T04:53:45;0.04;99.99
68251;DHT22;55066;51.560;4.642;2023-02-15T04:56:11;0.09;99.99
68251;DHT22;55066;51.560;4.642;2023-02-15T04:58:36;0.07;99.99
68251;DHT22;55066;51.560;4.642;2023-02-15T05:01:02;-0.05;99.99
68251;DHT22;55066;51.560;4.642;2023-02-15T05:03:29;-0.13;99.99
68251;DHT22;55066;51.560;4.642;2023-02-15T05:05:55;-0.06;99.99
68251;DHT22;55066;51.560;4.642;2023-02-15T05:08:20;0.04;99.99
68251;DHT22;55066;51.560;4.642;2023-02-15T05:10:48;0.12;99.99
68251;DHT22;55066;51.560;4.642;2023-02-15T05:13:14;0.21;99.99
68251;DHT22;55066;51.560;4.642;2023-02-15T05:15:39;0.14;99.99
68251;DHT22;55066;51.560;4.642;2023-02-15T05:18:04;0.08;99.99
68251;DHT22;55066;51.560;4.642;2023-02-15T05:20:31;0.11;99.99
68251;DHT22;55066;51.560;4.642;2023-02-15T05:22:57;0.24;99.99
68251;DHT22;55066;51.560;4.642;2023-02-15T05:25:22;0.21;99.99
68251;DHT22;55066;51.560;4.642;2023-02-15T05:28:10;0.04;99.99
68251;DHT22;55066;51.560;4.642;2023-02-15T05:30:59;-0.07;99.99
68251;DHT22;55066;51.560;4.642;2023-02-15T05:33:26;0.04;99.99
68251;DHT22;55066;51.560;4.642;2023-02-15T05:35:52;0.24;99.99
68251;DHT22;55066;51.560;4.642;2023-02-15T05:38:17;0.30;99.99
68251;DHT22;55066;51.560;4.642;2023-02-15T05:40:43;0.39;99.99
68251;DHT22;55066;51.560;4.642;2023-02-15T05:43:09;0.28;99.99
68251;DHT22;55066;51.560;4.642;2023-02-15T05:45:35;0.52;99.99
68251;DHT22;55066;51.560;4.642;2023-02-15T05:48:00;0.57;99.99
68251;DHT22;55066;51.560;4.642;2023-02-15T05:50:27;0.53;99.99
68251;DHT22;55066;51.560;4.642;2023-02-15T05:52:52;0.53;99.99
68251;DHT22;55066;51.560;4.642;2023-02-15T05:55:18;0.38;99.99
68251;DHT22;55066;51.560;4.642;2023-02-15T05:57:44;0.45;99.99
68251;DHT22;55066;51.560;4.642;2023-02-15T06:00:11;0.63;99.99
68251;DHT22;55066;51.560;4.642;2023-02-15T06:02:37;0.67;99.99
68251;DHT22;55066;51.560;4.642;2023-02-15T06:05:04;0.64;99.99
68251;DHT22;55066;51.560;4.642;2023-02-15T06:07:30;0.79;99.99
68251;DHT22;55066;51.560;4.642;2023-02-15T06:09:56;0.81;99.99
68251;DHT22;55066;51.560;4.642;2023-02-15T06:12:21;0.69;99.99
68251;DHT22;55066;51.560;4.642;2023-02-15T06:14:48;0.80;99.99
68251;DHT22;55066;51.560;4.642;2023-02-15T06:17:13;0.80;99.99
68251;DHT22;55066;51.560;4.642;2023-02-15T06:19:39;0.62;99.99
68251;DHT22;55066;51.560;4.642;2023-02-15T06:22:04;0.62;99.99
68251;DHT22;55066;51.560;4.642;2023-02-15T06:24:31;0.62;99.99
68251;DHT22;55066;51.560;4.642;2023-02-15T06:26:57;0.74;99.99
68251;DHT22;55066;51.560;4.642;2023-02-15T06:29:22;0.69;99.99
68251;DHT22;55066;51.560;4.642;2023-02-15T06:31:47;0.36;99.99
68251;DHT22;55066;51.560;4.642;2023-02-15T06:34:13;0.43;99.99
68251;DHT22;55066;51.560;4.642;2023-02-15T06:36:39;0.36;99.99
68251;DHT22;55066;51.560;4.642;2023-02-15T06:39:04;0.43;99.99
68251;DHT22;55066;51.560;4.642;2023-02-15T06:41:30;0.15;99.99
68251;DHT22;55066;51.560;4.642;2023-02-15T06:43:55;0.26;99.99
68251;DHT22;55066;51.560;4.642;2023-02-15T06:46:21;0.24;99.99
68251;DHT22;55066;51.560;4.642;2023-02-15T06:48:46;0.11;99.99
68251;DHT22;55066;51.560;4.642;2023-02-15T06:51:12;-0.03;99.99
68251;DHT22;55066;51.560;4.642;2023-02-15T06:53:37;0.21;99.99
68251;DHT22;55066;51.560;4.642;2023-02-15T06:56:06;0.21;99.99
68251;DHT22;55066;51.560;4.642;2023-02-15T06:58:41;0.30;99.99
68251;DHT22;55066;51.560;4.642;2023-02-15T07:01:09;0.33;99.99
68251;DHT22;55066;51.560;4.642;2023-02-15T07:03:35;0.33;99.99
68251;DHT22;55066;51.560;4.642;2023-02-15T07:06:02;0.30;99.99
68251;DHT22;55066;51.560;4.642;2023-02-15T07:08:28;0.26;99.99
68251;DHT22;55066;51.560;4.642;2023-02-15T07:10:55;0.48;99.99
68251;DHT22;55066;51.560;4.642;2023-02-15T07:13:41;0.46;99.99
68251;DHT22;55066;51.560;4.642;2023-02-15T07:16:08;0.48;99.99
68251;DHT22;55066;51.560;4.642;2023-02-15T07:18:34;0.46;99.99
68251;DHT22;55066;51.560;4.642;2023-02-15T07:20:59;0.53;99.99
68251;DHT22;55066;51.560;4.642;2023-02-15T07:23:25;0.66;99.99
68251;DHT22;55066;51.560;4.642;2023-02-15T07:25:57;0.62;99.99
68251;DHT22;55066;51.560;4.642;2023-02-15T07:28:24;0.64;99.99
68251;DHT22;55066;51.560;4.642;2023-02-15T07:30:49;0.73;99.99
68251;DHT22;55066;51.560;4.642;2023-02-15T07:33:20;0.80;99.99
68251;DHT22;55066;51.560;4.642;2023-02-15T07:35:52;0.88;99.99
68251;DHT22;55066;51.560;4.642;2023-02-15T07:38:18;0.91;99.99
68251;DHT22;55066;51.560;4.642;2023-02-15T07:40:44;1.01;99.99
68251;DHT22;55066;51.560;4.642;2023-02-15T07:43:13;1.02;99.99
68251;DHT22;55066;51.560;4.642;2023-02-15T07:45:40;1.07;99.99
68251;DHT22;55066;51.560;4.642;2023-02-15T07:48:06;1.17;99.99
68251;DHT22;55066;51.560;4.642;2023-02-15T07:50:33;1.32;99.99
68251;DHT22;55066;51.560;4.642;2023-02-15T07:53:02;1.45;99.99
68251;DHT22;55066;51.560;4.642;2023-02-15T07:55:29;1.49;99.99
68251;DHT22;55066;51.560;4.642;2023-02-15T07:57:54;1.49;99.99
68251;DHT22;55066;51.560;4.642;2023-02-15T08:00:21;1.60;99.99
68251;DHT22;55066;51.560;4.642;2023-02-15T08:02:56;1.68;99.99
68251;DHT22;55066;51.560;4.642;2023-02-15T08:05:41;1.71;99.99
68251;DHT22;55066;51.560;4.642;2023-02-15T08:08:08;1.76;99.99
68251;DHT22;55066;51.560;4.642;2023-02-15T08:10:35;1.83;99.99
68251;DHT22;55066;51.560;4.642;2023-02-15T08:13:21;1.90;99.99
68251;DHT22;55066;51.560;4.642;2023-02-15T08:15:50;1.97;99.99
68251;DHT22;55066;51.560;4.642;2023-02-15T08:18:16;1.97;99.99
68251;DHT22;55066;51.560;4.642;2023-02-15T08:20:42;2.01;99.99
68251;DHT22;55066;51.560;4.642;2023-02-15T08:23:07;2.12;99.99
68251;DHT22;55066;51.560;4.642;2023-02-15T08:25:33;2.11;99.99
68251;DHT22;55066;51.560;4.642;2023-02-15T08:27:58;2.17;99.99
68251;DHT22;55066;51.560;4.642;2023-02-15T08:30:23;2.24;99.99
68251;DHT22;55066;51.560;4.642;2023-02-15T08:32:49;2.29;99.99
68251;DHT22;55066;51.560;4.642;2023-02-15T08:35:14;2.38;99.99
68251;DHT22;55066;51.560;4.642;2023-02-15T08:37:41;2.39;99.99
68251;DHT22;55066;51.560;4.642;2023-02-15T08:40:07;2.42;99.99
68251;DHT22;55066;51.560;4.642;2023-02-15T08:42:38;2.42;99.99
68251;DHT22;55066;51.560;4.642;2023-02-15T08:45:06;2.56;99.99
68251;DHT22;55066;51.560;4.642;2023-02-15T08:47:32;2.66;99.99
68251;DHT22;55066;51.560;4.642;2023-02-15T08:49:57;2.81;99.99
68251;DHT22;55066;51.560;4.642;2023-02-15T08:52:23;2.86;99.99
68251;DHT22;55066;51.560;4.642;2023-02-15T08:54:49;2.93;99.99
68251;DHT22;55066;51.560;4.642;2023-02-15T08:57:15;3.00;99.99
68251;DHT22;55066;51.560;4.642;2023-02-15T08:59:43;3.08;99.99
68251;DHT22;55066;51.560;4.642;2023-02-15T09:02:10;3.25;99.99
68251;DHT22;55066;51.560;4.642;2023-02-15T09:04:36;3.38;99.99
68251;DHT22;55066;51.560;4.642;2023-02-15T09:07:02;3.45;99.99
68251;DHT22;55066;51.560;4.642;2023-02-15T09:09:29;3.55;99.99
68251;DHT22;55066;51.560;4.642;2023-02-15T09:11:56;3.62;99.99
68251;DHT22;55066;51.560;4.642;2023-02-15T09:14:22;3.70;99.99
68251;DHT22;55066;51.560;4.642;2023-02-15T09:16:49;3.79;99.99
68251;DHT22;55066;51.560;4.642;2023-02-15T09:19:19;3.95;99.99
68251;DHT22;55066;51.560;4.642;2023-02-15T09:21:45;4.11;99.99
68251;DHT22;55066;51.560;4.642;2023-02-15T09:24:12;4.21;99.99
68251;DHT22;55066;51.560;4.642;2023-02-15T09:26:42;4.28;99.99
68251;DHT22;55066;51.560;4.642;2023-02-15T09:29:10;4.56;99.99
68251;DHT22;55066;51.560;4.642;2023-02-15T09:31:45;4.62;99.99
68251;DHT22;55066;51.560;4.642;2023-02-15T09:34:13;4.70;99.99
68251;DHT22;55066;51.560;4.642;2023-02-15T09:36:42;4.80;99.99
68251;DHT22;55066;51.560;4.642;2023-02-15T09:39:17;4.98;99.99
68251;DHT22;55066;51.560;4.642;2023-02-15T09:42:17;5.13;99.99
68251;DHT22;55066;51.560;4.642;2023-02-15T09:47:46;5.49;99.99
68251;DHT22;55066;51.560;4.642;2023-02-15T09:50:24;5.66;99.99
68251;DHT22;55066;51.560;4.642;2023-02-15T09:53:24;5.89;99.99
68251;DHT22;55066;51.560;4.642;2023-02-15T09:56:24;6.18;99.12
68251;DHT22;55066;51.560;4.642;2023-02-15T09:59:08;6.29;98.52
68251;DHT22;55066;51.560;4.642;2023-02-15T10:02:05;6.38;98.14
68251;DHT22;55066;51.560;4.642;2023-02-15T10:07:50;6.76;97.66
68251;DHT22;55066;51.560;4.642;2023-02-15T10:24:44;7.61;96.04
68251;DHT22;55066;51.560;4.642;2023-02-15T10:27:20;7.48;95.12
68251;DHT22;55066;51.560;4.642;2023-02-15T10:30:02;7.70;95.12
68251;DHT22;55066;51.560;4.642;2023-02-15T10:32:50;7.80;94.98
68251;DHT22;55066;51.560;4.642;2023-02-15T10:35:22;7.89;94.16
68251;DHT22;55066;51.560;4.642;2023-02-15T10:51:43;8.35;92.84
68251;DHT22;55066;51.560;4.642;2023-02-15T10:57:59;8.38;92.67
68251;DHT22;55066;51.560;4.642;2023-02-15T11:05:53;8.77;91.07
68251;DHT22;55066;51.560;4.642;2023-02-15T11:08:24;8.83;90.79
68251;DHT22;55066;51.560;4.642;2023-02-15T11:10:54;8.80;90.81
68251;DHT22;55066;51.560;4.642;2023-02-15T11:13:25;8.75;90.45
68251;DHT22;55066;51.560;4.642;2023-02-15T11:18:36;9.11;90.27
68251;DHT22;55066;51.560;4.642;2023-02-15T11:21:26;9.13;90.30
68251;DHT22;55066;51.560;4.642;2023-02-15T11:23:53;9.34;90.07
68251;DHT22;55066;51.560;4.642;2023-02-15T11:26:26;9.41;89.28
68251;DHT22;55066;51.560;4.642;2023-02-15T11:29:03;9.55;88.68
68251;DHT22;55066;51.560;4.642;2023-02-15T11:31:41;9.68;88.42
68251;DHT22;55066;51.560;4.642;2023-02-15T11:34:33;10.00;87.24
68251;DHT22;55066;51.560;4.642;2023-02-15T11:37:05;10.17;86.86
68251;DHT22;55066;51.560;4.642;2023-02-15T11:39:32;10.22;86.22
68251;DHT22;55066;51.560;4.642;2023-02-15T11:42:18;10.28;85.49
68251;DHT22;55066;51.560;4.642;2023-02-15T11:45:05;10.51;85.01
68251;DHT22;55066;51.560;4.642;2023-02-15T11:47:36;10.51;85.10
68251;DHT22;55066;51.560;4.642;2023-02-15T11:50:01;10.71;84.41
68251;DHT22;55066;51.560;4.642;2023-02-15T11:52:29;10.62;84.82
68251;DHT22;55066;51.560;4.642;2023-02-15T11:54:56;10.72;84.63
68251;DHT22;55066;51.560;4.642;2023-02-15T11:57:33;10.54;84.57
68251;DHT22;55066;51.560;4.642;2023-02-15T12:00:14;10.65;85.22
68251;DHT22;55066;51.560;4.642;2023-02-15T12:02:47;10.71;84.71
68251;DHT22;55066;51.560;4.642;2023-02-15T12:05:17;10.79;85.27
68251;DHT22;55066;51.560;4.642;2023-02-15T12:07:47;11.20;84.05
68251;DHT22;55066;51.560;4.642;2023-02-15T12:10:33;11.16;84.31
68251;DHT22;55066;51.560;4.642;2023-02-15T12:13:18;11.22;84.19
68251;DHT22;55066;51.560;4.642;2023-02-15T12:15:48;11.13;84.11
68251;DHT22;55066;51.560;4.642;2023-02-15T12:18:43;11.23;82.85
68251;DHT22;55066;51.560;4.642;2023-02-15T12:21:12;11.30;83.13
68251;DHT22;55066;51.560;4.642;2023-02-15T12:23:48;11.33;83.10
68251;DHT22;55066;51.560;4.642;2023-02-15T12:26:24;11.37;82.37
68251;DHT22;55066;51.560;4.642;2023-02-15T12:28:50;11.55;82.55
68251;DHT22;55066;51.560;4.642;2023-02-15T12:31:30;11.85;82.11
68251;DHT22;55066;51.560;4.642;2023-02-15T12:33:57;11.77;81.68
68251;DHT22;55066;51.560;4.642;2023-02-15T12:36:33;11.45;82.21
68251;DHT22;55066;51.560;4.642;2023-02-15T12:42:15;11.72;82.09
68251;DHT22;55066;51.560;4.642;2023-02-15T12:47:21;11.95;80.89
68251;DHT22;55066;51.560;4.642;2023-02-15T12:50:14;12.43;79.98
68251;DHT22;55066;51.560;4.642;2023-02-15T12:52:49;12.57;79.01
68251;DHT22;55066;51.560;4.642;2023-02-15T12:55:27;12.75;78.03
68251;DHT22;55066;51.560;4.642;2023-02-15T12:58:16;12.57;78.18
68251;DHT22;55066;51.560;4.642;2023-02-15T13:00:47;12.77;77.94
68251;DHT22;55066;51.560;4.642;2023-02-15T13:03:20;12.65;78.28
68251;DHT22;55066;51.560;4.642;2023-02-15T13:05:53;12.65;77.82
68251;DHT22;55066;51.560;4.642;2023-02-15T13:08:31;12.55;78.79
68251;DHT22;55066;51.560;4.642;2023-02-15T13:11:08;12.40;78.25
68251;DHT22;55066;51.560;4.642;2023-02-15T13:13:50;12.33;79.00
68251;DHT22;55066;51.560;4.642;2023-02-15T13:18:53;12.40;79.10
68251;DHT22;55066;51.560;4.642;2023-02-15T13:21:24;12.48;79.46
68251;DHT22;55066;51.560;4.642;2023-02-15T13:23:55;12.44;79.62
68251;DHT22;55066;51.560;4.642;2023-02-15T13:26:23;12.41;78.89
68251;DHT22;55066;51.560;4.642;2023-02-15T13:28:58;12.50;79.31
68251;DHT22;55066;51.560;4.642;2023-02-15T13:31:28;12.57;78.89
68251;DHT22;55066;51.560;4.642;2023-02-15T13:34:25;12.40;79.28
68251;DHT22;55066;51.560;4.642;2023-02-15T13:40:15;12.60;79.42
68251;DHT22;55066;51.560;4.642;2023-02-15T13:43:20;12.50;79.51
68251;DHT22;55066;51.560;4.642;2023-02-15T13:59:29;12.71;80.14
68251;DHT22;55066;51.560;4.642;2023-02-15T14:04:52;12.75;78.95
68251;DHT22;55066;51.560;4.642;2023-02-15T14:16:06;12.81;78.67
68251;DHT22;55066;51.560;4.642;2023-02-15T14:19:19;12.85;78.58
68251;DHT22;55066;51.560;4.642;2023-02-15T14:22:02;12.93;78.69
68251;DHT22;55066;51.560;4.642;2023-02-15T14:28:12;13.19;78.01
68251;DHT22;55066;51.560;4.642;2023-02-15T14:30:42;13.16;77.46
68251;DHT22;55066;51.560;4.642;2023-02-15T14:35:47;13.15;77.23
68251;DHT22;55066;51.560;4.642;2023-02-15T14:41:15;13.19;77.01
68251;DHT22;55066;51.560;4.642;2023-02-15T14:47:31;13.27;76.69
68251;DHT22;55066;51.560;4.642;2023-02-15T14:49:46;13.24;76.04
68251;DHT22;55066;51.560;4.642;2023-02-15T14:52:12;13.12;76.73
68251;DHT22;55066;51.560;4.642;2023-02-15T14:59:54;13.09;79.85
68251;DHT22;55066;51.560;4.642;2023-02-15T15:02:42;13.05;77.39
68251;DHT22;55066;51.560;4.642;2023-02-15T15:07:44;13.97;74.57
68251;DHT22;55066;51.560;4.642;2023-02-15T15:12:48;14.28;73.71
68251;DHT22;55066;51.560;4.642;2023-02-15T15:25:51;13.64;74.31
68251;DHT22;55066;51.560;4.642;2023-02-15T15:31:08;13.24;75.14
68251;DHT22;55066;51.560;4.642;2023-02-15T15:33:51;12.84;76.46
68251;DHT22;55066;51.560;4.642;2023-02-15T15:36:32;12.54;77.70
68251;DHT22;55066;51.560;4.642;2023-02-15T15:50:42;11.57;80.66
68251;DHT22;55066;51.560;4.642;2023-02-15T15:53:19;11.42;81.49
68251;DHT22;55066;51.560;4.642;2023-02-15T15:55:47;11.41;82.46
68251;DHT22;55066;51.560;4.642;2023-02-15T15:58:16;11.27;81.24
68251;DHT22;55066;51.560;4.642;2023-02-15T16:00:49;11.12;81.55
68251;DHT22;55066;51.560;4.642;2023-02-15T16:03:24;11.02;82.22
68251;DHT22;55066;51.560;4.642;2023-02-15T16:05:51;10.96;82.62
68251;DHT22;55066;51.560;4.642;2023-02-15T16:10:52;10.88;82.76
68251;DHT22;55066;51.560;4.642;2023-02-15T16:13:18;10.78;83.62
68251;DHT22;55066;51.560;4.642;2023-02-15T16:15:47;10.68;83.93
68251;DHT22;55066;51.560;4.642;2023-02-15T16:18:23;10.51;83.77
68251;DHT22;55066;51.560;4.642;2023-02-15T16:20:56;10.48;83.79
68251;DHT22;55066;51.560;4.642;2023-02-15T16:28:47;10.04;84.97
68251;DHT22;55066;51.560;4.642;2023-02-15T16:31:15;9.97;86.32
68251;DHT22;55066;51.560;4.642;2023-02-15T16:33:43;9.82;85.51
68251;DHT22;55066;51.560;4.642;2023-02-15T16:36:20;9.72;85.87
68251;DHT22;55066;51.560;4.642;2023-02-15T16:41:24;9.45;86.94
68251;DHT22;55066;51.560;4.642;2023-02-15T16:43:55;9.37;87.16
68251;DHT22;55066;51.560;4.642;2023-02-15T16:49:00;9.13;87.95
68251;DHT22;55066;51.560;4.642;2023-02-15T16:51:32;9.18;88.87
68251;DHT22;55066;51.560;4.642;2023-02-15T16:54:08;9.10;88.96
68251;DHT22;55066;51.560;4.642;2023-02-15T16:56:43;9.03;88.95
68251;DHT22;55066;51.560;4.642;2023-02-15T16:59:31;8.91;88.25
68251;DHT22;55066;51.560;4.642;2023-02-15T17:01:58;8.89;88.69
68251;DHT22;55066;51.560;4.642;2023-02-15T17:04:29;8.81;87.95
68251;DHT22;55066;51.560;4.642;2023-02-15T17:07:15;8.83;89.35
68251;DHT22;55066;51.560;4.642;2023-02-15T17:09:53;8.72;89.23
68251;DHT22;55066;51.560;4.642;2023-02-15T17:12:54;8.56;90.05
68251;DHT22;55066;51.560;4.642;2023-02-15T17:15:40;8.49;89.38
68251;DHT22;55066;51.560;4.642;2023-02-15T17:18:23;8.31;89.79
68251;DHT22;55066;51.560;4.642;2023-02-15T17:20:53;8.23;90.12
68251;DHT22;55066;51.560;4.642;2023-02-15T17:23:33;8.25;90.17
68251;DHT22;55066;51.560;4.642;2023-02-15T17:26:10;8.20;90.71
68251;DHT22;55066;51.560;4.642;2023-02-15T17:28:52;8.25;92.88
68251;DHT22;55066;51.560;4.642;2023-02-15T17:31:20;8.28;91.33
68251;DHT22;55066;51.560;4.642;2023-02-15T17:33:49;8.18;92.87
68251;DHT22;55066;51.560;4.642;2023-02-15T17:36:22;8.21;90.44
68251;DHT22;55066;51.560;4.642;2023-02-15T17:39:20;8.23;90.58
68251;DHT22;55066;51.560;4.642;2023-02-15T17:41:51;8.14;90.21
68251;DHT22;55066;51.560;4.642;2023-02-15T17:44:18;8.01;90.52
68251;DHT22;55066;51.560;4.642;2023-02-15T17:46:44;7.98;90.83
68251;DHT22;55066;51.560;4.642;2023-02-15T17:49:23;8.14;91.13
68251;DHT22;55066;51.560;4.642;2023-02-15T17:51:50;8.13;91.58
68251;DHT22;55066;51.560;4.642;2023-02-15T17:54:16;8.05;90.82
68251;DHT22;55066;51.560;4.642;2023-02-15T17:57:00;7.97;90.39
68251;DHT22;55066;51.560;4.642;2023-02-15T17:59:31;8.18;92.26
68251;DHT22;55066;51.560;4.642;2023-02-15T18:01:58;8.14;90.11
68251;DHT22;55066;51.560;4.642;2023-02-15T18:04:42;8.05;90.58
68251;DHT22;55066;51.560;4.642;2023-02-15T18:07:26;8.08;90.71
68251;DHT22;55066;51.560;4.642;2023-02-15T18:10:13;8.01;91.04
68251;DHT22;55066;51.560;4.642;2023-02-15T18:12:58;8.04;90.99
68251;DHT22;55066;51.560;4.642;2023-02-15T18:15:24;7.97;90.75
68251;DHT22;55066;51.560;4.642;2023-02-15T18:17:50;7.90;93.12
68251;DHT22;55066;51.560;4.642;2023-02-15T18:20:22;7.82;91.61
68251;DHT22;55066;51.560;4.642;2023-02-15T18:22:50;7.90;91.46
68251;DHT22;55066;51.560;4.642;2023-02-15T18:25:20;7.77;91.59
68251;DHT22;55066;51.560;4.642;2023-02-15T18:27:48;7.62;92.94
68251;DHT22;55066;51.560;4.642;2023-02-15T18:30:17;7.59;93.47
68251;DHT22;55066;51.560;4.642;2023-02-15T18:32:44;7.56;93.91
68251;DHT22;55066;51.560;4.642;2023-02-15T18:35:18;7.58;93.23
68251;DHT22;55066;51.560;4.642;2023-02-15T18:37:45;7.52;93.28
68251;DHT22;55066;51.560;4.642;2023-02-15T18:40:18;7.39;93.37
68251;DHT22;55066;51.560;4.642;2023-02-15T18:42:44;7.45;93.21
68251;DHT22;55066;51.560;4.642;2023-02-15T18:45:17;7.39;93.14
68251;DHT22;55066;51.560;4.642;2023-02-15T18:47:44;7.32;95.02
68251;DHT22;55066;51.560;4.642;2023-02-15T18:50:11;7.35;93.80
68251;DHT22;55066;51.560;4.642;2023-02-15T18:52:37;7.31;93.41
68251;DHT22;55066;51.560;4.642;2023-02-15T18:55:24;7.27;94.05
68251;DHT22;55066;51.560;4.642;2023-02-15T18:57:52;7.21;93.62
68251;DHT22;55066;51.560;4.642;2023-02-15T19:00:28;7.20;93.43
68251;DHT22;55066;51.560;4.642;2023-02-15T19:02:54;7.20;93.76